Time;durP1;ratioP1;P1;durP2;ratioP2;P2;SDS_P1;SDS_P2;PMS_P1;PMS_P2;Temp;Humidity;BMP_temperature;BMP_pressure;BME280_temperature;BME280_humidity;BME280_pressure;Samples;Min_cycle;Max_cycle;Signal;HPM_P1;HPM_P2
2022/10/25 00:01:16;;;;;;;5.88;2.65;;;23.50;56.60;;;;;;5109596;28;20036;-34
2022/10/25 00:03:42;;;;;;;3.22;2.40;;;23.50;56.60;;;;;;5120931;27;20028;-33
2022/10/25 00:06:09;;;;;;;4.13;2.30;;;23.50;56.60;;;;;;5095668;28;20028;-34
2022/10/25 00:08:35;;;;;;;;;;;23.50;56.50;;;;;;5093790;28;20032;-33
2022/10/25 00:11:01;;;;;;;2.45;2.03;;;23.50;56.50;;;;;;5110077;28;19916;-33
2022/10/25 00:13:27;;;;;;;2.88;2.17;;;23.50;56.40;;;;;;5101072;28;20040;-33
2022/10/25 00:15:54;;;;;;;10.02;3.80;;;23.50;56.40;;;;;;5086311;28;20024;-32
2022/10/25 00:18:20;;;;;;;18.33;6.32;;;23.50;56.60;;;;;;5113895;28;20626;-33
2022/10/25 00:20:46;;;;;;;23.58;7.32;;;23.50;56.70;;;;;;5087806;28;20044;-34
2022/10/25 00:23:15;;;;;;;25.90;8.32;;;23.50;56.80;;;;;;5102537;28;20039;-34
2022/10/25 00:25:41;;;;;;;22.35;8.25;;;23.50;57.10;;;;;;5109553;28;20039;-34
2022/10/25 00:28:07;;;;;;;20.02;5.43;;;23.50;57.10;;;;;;5121278;28;20062;-37
2022/10/25 00:30:33;;;;;;;12.77;4.80;;;23.50;57.00;;;;;;5088353;28;20036;-33
2022/10/25 00:32:59;;;;;;;17.35;4.60;;;23.50;56.90;;;;;;5097881;28;20040;-34
2022/10/25 00:35:26;;;;;;;8.18;3.80;;;23.50;56.80;;;;;;5106028;28;20054;-34
2022/10/25 00:37:52;;;;;;;8.23;3.67;;;23.50;56.70;;;;;;5100430;28;20028;-34
2022/10/25 00:40:18;;;;;;;8.40;3.80;;;23.50;56.60;;;;;;5098302;28;20781;-34
2022/10/25 00:42:44;;;;;;;7.60;3.15;;;23.40;56.50;;;;;;5097091;28;20049;-34
2022/10/25 00:45:21;;;;;;;7.10;3.47;;;23.50;56.50;;;;;;5095796;28;20066;-34
2022/10/25 00:47:52;;;;;;;5.05;2.90;;;23.50;56.50;;;;;;5104340;28;20039;-35
2022/10/25 00:50:33;;;;;;;5.25;2.92;;;23.50;56.40;;;;;;5104284;28;20118;-34
2022/10/25 00:53:03;;;;;;;5.43;2.40;;;23.50;56.40;;;;;;5121814;27;20063;-34
2022/10/25 00:55:30;;;;;;;4.35;2.33;;;23.40;56.40;;;;;;5091746;28;20032;-35
2022/10/25 00:58:13;;;;;;;4.63;2.30;;;23.40;56.40;;;;;;5121834;28;20036;-33
2022/10/25 01:00:39;;;;;;;7.63;2.78;;;23.40;56.40;;;;;;5104629;27;20024;-34
2022/10/25 01:03:05;;;;;;;3.95;2.42;;;23.40;56.50;;;;;;5098316;28;20028;-36
2022/10/25 01:05:32;;;;;;;3.35;2.15;;;23.40;56.60;;;;;;5104698;28;20024;-38
2022/10/25 01:07:58;;;;;;;2.70;1.95;;;23.40;56.60;;;;;;5103677;28;20032;-32
2022/10/25 01:10:25;;;;;;;3.15;1.92;;;23.40;56.60;;;;;;5105119;28;20036;-33
2022/10/25 01:12:51;;;;;;;3.05;1.90;;;23.40;56.60;;;;;;5116823;28;20571;-35
2022/10/25 01:15:17;;;;;;;3.85;1.70;;;23.40;56.60;;;;;;5123432;28;20035;-34
2022/10/25 01:17:58;;;;;;;2.88;1.70;;;23.30;56.50;;;;;;5090970;28;20028;-33
2022/10/25 01:20:55;;;;;;;2.53;1.80;;;23.30;56.50;;;;;;5094268;28;20039;-33
2022/10/25 01:23:50;;;;;;;2.38;1.50;;;23.30;56.50;;;;;;5098077;28;20035;-43
2022/10/25 01:26:36;;;;;;;2.05;1.33;;;23.30;56.50;;;;;;5124686;27;20040;-34
2022/10/25 01:29:37;;;;;;;2.40;1.50;;;23.30;56.40;;;;;;5106789;28;20028;-39
2022/10/25 01:32:21;;;;;;;1.98;1.60;;;23.30;56.40;;;;;;5075053;28;20118;-36
2022/10/25 01:35:09;;;;;;;1.92;1.30;;;23.20;56.30;;;;;;5104802;28;20027;-34
2022/10/25 01:38:09;;;;;;;1.83;1.33;;;23.20;56.40;;;;;;5097942;28;20039;-37
2022/10/25 01:40:52;;;;;;;2.70;1.45;;;23.20;56.50;;;;;;5096903;28;20054;-34
2022/10/25 01:43:31;;;;;;;2.00;1.08;;;23.20;56.50;;;;;;5129101;27;20036;-34
2022/10/25 01:46:00;;;;;;;1.40;1.20;;;23.20;57.10;;;;;;5119708;27;20675;-44
2022/10/25 01:48:34;;;;;;;1.50;1.10;;;23.20;56.50;;;;;;5114866;28;20028;-33
2022/10/25 01:51:18;;;;;;;1.90;1.30;;;23.20;56.50;;;;;;5122123;27;20044;-36
2022/10/25 01:53:45;;;;;;;1.55;1.20;;;23.10;56.40;;;;;;5102928;28;20016;-42
2022/10/25 01:56:13;;;;;;;1.20;1.10;;;23.10;56.40;;;;;;5094485;28;20044;-40
2022/10/25 01:58:48;;;;;;;1.60;1.13;;;23.10;56.40;;;;;;5096242;28;20049;-45
2022/10/25 02:01:17;;;;;;;1.38;1.23;;;23.10;56.40;;;;;;5094457;28;20059;-35
2022/10/25 02:04:05;;;;;;;1.10;1.00;;;23.10;56.40;;;;;;5102531;28;20020;-44
2022/10/25 02:06:54;;;;;;;1.10;1.00;;;23.10;56.40;;;;;;5093419;28;20031;-46
2022/10/25 02:09:32;;;;;;;0.80;0.80;;;23.10;56.40;;;;;;5127774;27;20054;-40
2022/10/25 02:11:58;;;;;;;;;;;23.10;56.40;;;;;;5101923;28;20040;-31
2022/10/25 02:14:38;;;;;;;1.10;1.00;;;23.00;56.30;;;;;;5099885;28;19927;-38
2022/10/25 02:17:08;;;;;;;1.20;0.95;;;23.00;56.40;;;;;;5125643;27;20544;-37
2022/10/25 02:19:56;;;;;;;1.15;1.05;;;23.00;56.40;;;;;;5103847;28;20032;-35
2022/10/25 02:22:23;;;;;;;1.57;1.10;;;23.00;56.40;;;;;;5100400;28;20057;-37
2022/10/25 02:24:49;;;;;;;1.00;0.90;;;23.00;56.40;;;;;;5142916;27;20027;-32
2022/10/25 02:27:26;;;;;;;2.92;1.10;;;22.90;56.30;;;;;;5095356;28;20052;-33
2022/10/25 02:29:53;;;;;;;0.95;0.88;;;22.90;56.40;;;;;;5099874;28;20043;-44
2022/10/25 02:32:25;;;;;;;1.55;0.90;;;22.90;56.40;;;;;;5097669;28;20058;-35
2022/10/25 02:34:51;;;;;;;1.20;1.10;;;22.90;56.40;;;;;;5100779;28;20024;-32
2022/10/25 02:37:18;;;;;;;1.10;1.00;;;22.90;56.50;;;;;;5096027;28;20023;-31
2022/10/25 02:39:45;;;;;;;0.93;0.80;;;22.90;56.50;;;;;;5090848;28;20019;-33
2022/10/25 02:42:11;;;;;;;1.30;1.10;;;22.80;56.50;;;;;;5097325;28;20040;-36
2022/10/25 02:44:38;;;;;;;1.13;0.90;;;22.80;56.50;;;;;;5129025;27;20023;-39
2022/10/25 02:47:04;;;;;;;1.10;1.00;;;22.80;56.60;;;;;;5090488;28;20048;-38
2022/10/25 02:49:30;;;;;;;1.27;0.90;;;22.80;56.50;;;;;;5125664;27;20031;-33
2022/10/25 02:51:56;;;;;;;0.70;0.70;;;22.80;56.50;;;;;;5093459;28;20062;-35
2022/10/25 02:54:22;;;;;;;0.80;0.80;;;22.80;56.50;;;;;;5099146;28;20038;-34
2022/10/25 02:56:51;;;;;;;1.00;0.90;;;22.70;56.50;;;;;;5100219;28;20058;-39
2022/10/25 02:59:18;;;;;;;1.20;0.90;;;22.70;56.50;;;;;;5101097;28;20028;-37
2022/10/25 03:01:44;;;;;;;;;;;22.70;56.50;;;;;;5106469;28;20032;-36
2022/10/25 03:04:10;;;;;;;1.10;1.00;;;22.70;56.50;;;;;;5092242;28;19934;-36
2022/10/25 03:06:36;;;;;;;0.98;0.75;;;22.70;56.50;;;;;;5093481;28;20027;-33
2022/10/25 03:09:03;;;;;;;0.85;0.85;;;22.70;56.50;;;;;;5108069;28;20035;-35
2022/10/25 03:11:29;;;;;;;0.98;0.80;;;22.60;56.50;;;;;;5106756;28;20036;-34
2022/10/25 03:13:55;;;;;;;0.80;0.73;;;22.60;56.50;;;;;;5103176;28;20056;-36
2022/10/25 03:16:21;;;;;;;1.15;1.00;;;22.60;56.50;;;;;;5103313;28;20025;-35
2022/10/25 03:18:47;;;;;;;1.23;1.13;;;22.60;56.50;;;;;;5093750;28;20024;-35
2022/10/25 03:21:13;;;;;;;0.80;0.80;;;22.60;56.60;;;;;;5096759;28;20027;-35
2022/10/25 03:23:39;;;;;;;0.80;0.77;;;22.60;56.60;;;;;;5100788;28;20060;-35
2022/10/25 03:26:06;;;;;;;1.05;0.95;;;22.60;56.60;;;;;;5096029;28;20032;-35
2022/10/25 03:28:32;;;;;;;0.90;0.90;;;22.50;56.70;;;;;;5105915;28;20083;-35
2022/10/25 03:30:58;;;;;;;3.22;0.77;;;22.50;56.90;;;;;;5100913;28;20036;-38
2022/10/25 03:33:25;;;;;;;0.93;0.90;;;22.50;56.90;;;;;;5097875;28;20054;-32
2022/10/25 03:35:52;;;;;;;1.10;0.85;;;22.50;56.90;;;;;;5105443;28;20036;-34
2022/10/25 03:38:18;;;;;;;2.90;0.80;;;22.50;56.90;;;;;;5103674;28;20028;-35
2022/10/25 03:40:44;;;;;;;1.40;1.05;;;22.50;56.90;;;;;;5098809;28;20027;-36
2022/10/25 03:43:10;;;;;;;1.08;0.80;;;22.40;56.80;;;;;;5114907;28;20032;-38
2022/10/25 03:45:36;;;;;;;0.85;0.82;;;22.40;56.80;;;;;;5104688;28;20034;-34
2022/10/25 03:48:02;;;;;;;1.17;0.90;;;22.40;56.90;;;;;;5109054;28;20087;-37
2022/10/25 03:50:29;;;;;;;1.05;0.95;;;22.40;56.80;;;;;;5090641;28;20032;-35
2022/10/25 03:52:55;;;;;;;1.00;0.90;;;22.40;56.80;;;;;;5102239;28;20040;-34
2022/10/25 03:55:21;;;;;;;0.77;0.77;;;22.40;56.90;;;;;;5101059;28;20024;-31
2022/10/25 03:57:47;;;;;;;1.42;1.00;;;22.30;56.70;;;;;;5100773;28;20035;-36
2022/10/25 04:00:14;;;;;;;1.23;0.80;;;22.30;56.80;;;;;;5093678;28;20052;-36
2022/10/25 04:02:40;;;;;;;1.23;0.90;;;22.30;56.80;;;;;;5102450;28;20033;-34
2022/10/25 04:05:06;;;;;;;1.13;1.02;;;22.30;56.80;;;;;;5100453;28;20020;-35
2022/10/25 04:07:32;;;;;;;0.97;0.80;;;22.30;56.80;;;;;;5101418;28;20040;-38
2022/10/25 04:09:58;;;;;;;1.00;0.90;;;22.30;56.80;;;;;;5098402;28;20024;-32
2022/10/25 04:12:24;;;;;;;1.08;0.98;;;22.20;56.80;;;;;;5099211;28;20036;-34
2022/10/25 04:14:51;;;;;;;1.20;1.10;;;22.20;56.80;;;;;;5101793;28;20865;-35
2022/10/25 04:17:17;;;;;;;1.33;1.10;;;22.20;56.80;;;;;;5103042;28;20083;-33
2022/10/25 04:19:43;;;;;;;0.90;0.80;;;22.20;56.80;;;;;;5101262;28;20036;-35
2022/10/25 04:22:13;;;;;;;1.00;0.90;;;22.20;56.90;;;;;;5101332;28;20799;-36
2022/10/25 04:24:39;;;;;;;1.00;0.95;;;22.20;56.90;;;;;;5096450;28;20039;-34
2022/10/25 04:27:05;;;;;;;0.95;0.90;;;22.20;56.90;;;;;;5100998;28;20024;-38
2022/10/25 04:29:31;;;;;;;1.05;0.93;;;22.10;56.80;;;;;;5103650;28;20027;-38
2022/10/25 04:31:58;;;;;;;1.42;0.98;;;22.10;56.80;;;;;;5104034;28;20047;-34
2022/10/25 04:34:24;;;;;;;0.98;0.90;;;22.10;56.80;;;;;;5097079;28;20024;-33
2022/10/25 04:36:50;;;;;;;1.05;0.90;;;22.10;56.90;;;;;;5100953;28;20024;-35
2022/10/25 04:39:16;;;;;;;0.93;0.85;;;22.10;57.00;;;;;;5097581;28;20518;-34
2022/10/25 04:41:42;;;;;;;1.15;1.00;;;22.10;57.00;;;;;;5098285;28;20028;-37
2022/10/25 04:44:09;;;;;;;1.08;0.98;;;22.00;57.00;;;;;;5101542;28;20082;-36
2022/10/25 04:46:35;;;;;;;0.97;0.80;;;22.10;57.10;;;;;;5097715;28;20028;-36
2022/10/25 04:49:01;;;;;;;1.05;0.88;;;22.00;57.00;;;;;;5102250;28;20035;-33
2022/10/25 04:51:27;;;;;;;1.30;1.10;;;22.00;57.00;;;;;;5100127;28;20765;-36
2022/10/25 04:53:54;;;;;;;1.02;0.93;;;22.00;57.00;;;;;;5098645;28;20028;-34
2022/10/25 04:56:20;;;;;;;0.70;0.70;;;22.00;57.00;;;;;;5102383;28;20203;-36
2022/10/25 04:58:47;;;;;;;0.75;0.70;;;22.00;57.00;;;;;;5098198;28;20062;-35
2022/10/25 05:01:14;;;;;;;1.02;0.90;;;21.90;57.00;;;;;;5101519;28;20058;-35
2022/10/25 05:03:40;;;;;;;0.63;0.60;;;21.90;57.60;;;;;;5097763;28;20024;-35
2022/10/25 05:06:17;;;;;;;1.08;0.98;;;21.90;57.00;;;;;;5102070;28;20121;-33
2022/10/25 05:08:44;;;;;;;1.23;0.98;;;21.90;57.00;;;;;;5097974;28;20043;-33
2022/10/25 05:11:11;;;;;;;1.13;1.02;;;21.90;57.00;;;;;;5100899;28;20102;-37
2022/10/25 05:13:38;;;;;;;1.10;1.00;;;21.80;57.00;;;;;;5098135;28;20063;-35
2022/10/25 05:16:04;;;;;;;1.20;0.98;;;21.80;57.00;;;;;;5101480;28;20036;-37
2022/10/25 05:18:31;;;;;;;1.20;1.00;;;21.80;57.10;;;;;;5095823;28;20028;-37
2022/10/25 05:20:59;;;;;;;0.80;0.80;;;21.80;57.10;;;;;;5100746;28;20032;-35
2022/10/25 05:23:25;;;;;;;1.10;0.98;;;21.80;57.10;;;;;;5105725;28;20073;-34
2022/10/25 05:26:06;;;;;;;0.93;0.85;;;21.80;57.10;;;;;;5096477;28;20031;-34
2022/10/25 05:28:33;;;;;;;0.85;0.80;;;21.70;57.00;;;;;;5100577;28;20035;-34
2022/10/25 05:31:15;;;;;;;0.70;0.70;;;21.70;57.00;;;;;;5103035;28;20066;-37
2022/10/25 05:33:43;;;;;;;0.95;0.85;;;21.70;57.10;;;;;;5130750;27;20050;-32
2022/10/25 05:36:10;;;;;;;1.05;0.90;;;21.70;57.30;;;;;;5097407;28;20024;-35
2022/10/25 05:38:36;;;;;;;1.00;0.95;;;21.70;57.40;;;;;;5097570;28;20032;-37
2022/10/25 05:41:02;;;;;;;1.25;1.15;;;21.70;57.40;;;;;;5102150;28;20032;-37
2022/10/25 05:43:28;;;;;;;1.45;0.98;;;21.60;57.30;;;;;;5098894;28;20024;-37
2022/10/25 05:46:06;;;;;;;1.95;1.00;;;21.60;57.40;;;;;;5100421;28;20037;-37
2022/10/25 05:48:32;;;;;;;;;;;21.60;57.30;;;;;;5099549;28;20032;-38
2022/10/25 05:51:14;;;;;;;1.13;0.80;;;21.60;57.30;;;;;;5099105;28;19921;-36
2022/10/25 05:53:42;;;;;;;1.10;0.98;;;21.60;57.30;;;;;;5099276;28;20024;-37
2022/10/25 05:56:09;;;;;;;1.08;0.98;;;21.60;57.40;;;;;;5101337;28;20032;-37
2022/10/25 05:58:35;;;;;;;0.83;0.83;;;21.60;57.40;;;;;;5099313;28;20031;-36
2022/10/25 06:01:01;;;;;;;1.65;0.80;;;21.60;57.40;;;;;;5100326;28;20376;-38
2022/10/25 06:03:27;;;;;;;1.27;1.05;;;21.60;57.30;;;;;;5099874;28;20571;-33
2022/10/25 06:05:53;;;;;;;1.20;1.10;;;21.50;57.30;;;;;;5097775;28;20120;-33
2022/10/25 06:08:20;;;;;;;1.33;1.08;;;21.50;57.30;;;;;;5098001;28;21010;-33
2022/10/25 06:10:46;;;;;;;1.08;0.80;;;21.50;57.30;;;;;;5098562;28;20050;-31
2022/10/25 06:13:12;;;;;;;1.38;1.08;;;21.50;57.30;;;;;;5098203;28;20051;-33
2022/10/25 06:15:38;;;;;;;1.10;1.00;;;21.40;57.30;;;;;;5098361;28;20473;-36
2022/10/25 06:18:04;;;;;;;1.08;0.98;;;21.50;57.40;;;;;;5096219;28;20032;-32
2022/10/25 06:20:30;;;;;;;1.65;1.20;;;21.40;57.40;;;;;;5102833;28;20024;-36
2022/10/25 06:22:56;;;;;;;1.40;0.98;;;21.40;57.30;;;;;;5097479;28;20769;-35
2022/10/25 06:25:22;;;;;;;1.38;1.00;;;21.40;57.30;;;;;;5095306;28;20151;-33
2022/10/25 06:27:48;;;;;;;0.90;0.90;;;21.30;57.30;;;;;;5094083;28;20021;-34
2022/10/25 06:30:15;;;;;;;0.73;0.73;;;21.30;57.20;;;;;;5099116;28;20090;-34
2022/10/25 06:32:41;;;;;;;1.10;1.00;;;21.30;57.30;;;;;;5099517;28;20040;-33
2022/10/25 06:35:07;;;;;;;1.60;1.13;;;21.30;57.30;;;;;;5101250;28;20804;-35
2022/10/25 06:37:33;;;;;;;1.53;1.20;;;21.30;57.30;;;;;;5100303;28;20560;-35
2022/10/25 06:39:59;;;;;;;1.65;1.13;;;21.30;57.30;;;;;;5100446;28;20036;-34
2022/10/25 06:42:25;;;;;;;1.10;1.00;;;21.30;57.30;;;;;;5096713;28;20048;-33
2022/10/25 06:44:51;;;;;;;1.15;1.00;;;21.20;57.30;;;;;;5100669;28;20028;-35
2022/10/25 06:47:18;;;;;;;1.27;1.10;;;21.20;57.40;;;;;;5097259;28;20035;-33
2022/10/25 06:49:44;;;;;;;1.40;1.00;;;21.20;57.40;;;;;;5102428;28;20032;-35
2022/10/25 06:52:11;;;;;;;1.17;1.00;;;21.20;57.50;;;;;;5097344;28;20047;-32
2022/10/25 06:54:37;;;;;;;1.63;1.23;;;21.20;57.50;;;;;;5096769;28;20028;-34
2022/10/25 06:57:03;;;;;;;1.05;0.90;;;21.10;57.50;;;;;;5100410;28;20040;-33
2022/10/25 06:59:29;;;;;;;1.25;1.08;;;21.10;57.50;;;;;;5099523;28;20029;-33
2022/10/25 07:01:56;;;;;;;1.13;0.95;;;21.10;57.50;;;;;;5099210;28;20028;-35
2022/10/25 07:04:22;;;;;;;1.65;1.30;;;21.10;57.60;;;;;;5097506;28;20514;-33
2022/10/25 07:06:48;;;;;;;1.00;0.90;;;21.10;57.60;;;;;;5101783;28;20028;-36
2022/10/25 07:09:14;;;;;;;1.48;1.35;;;21.00;57.50;;;;;;5094952;28;20050;-30
2022/10/25 07:11:40;;;;;;;1.05;0.95;;;21.00;57.60;;;;;;5099790;28;20051;-38
2022/10/25 07:14:08;;;;;;;0.80;0.80;;;21.00;57.60;;;;;;5096070;28;20120;-35
2022/10/25 07:16:34;;;;;;;;;;;21.00;57.60;;;;;;5102065;28;20028;-31
2022/10/25 07:19:01;;;;;;;1.23;1.13;;;21.00;57.60;;;;;;5105483;28;19912;-37
2022/10/25 07:21:28;;;;;;;1.45;1.10;;;20.90;57.60;;;;;;5108697;27;20034;-31
2022/10/25 07:23:54;;;;;;;1.27;1.02;;;20.90;57.60;;;;;;5107179;28;20038;-38
2022/10/25 07:26:25;;;;;;;1.23;1.13;;;20.90;57.60;;;;;;5106705;28;20067;-34
2022/10/25 07:28:52;;;;;;;1.17;1.08;;;20.90;57.60;;;;;;5105295;28;20028;-34
2022/10/25 07:31:20;;;;;;;1.30;1.20;;;20.90;57.60;;;;;;5106766;28;20043;-34
2022/10/25 07:33:47;;;;;;;1.20;1.10;;;20.90;57.60;;;;;;5106646;28;20139;-37
2022/10/25 07:36:13;;;;;;;1.20;1.10;;;20.90;57.60;;;;;;5106217;28;20057;-33
2022/10/25 07:38:39;;;;;;;1.40;1.20;;;20.90;57.70;;;;;;5105464;28;20028;-36
2022/10/25 07:41:06;;;;;;;1.08;0.98;;;20.80;57.70;;;;;;5103919;28;20035;-34
2022/10/25 07:43:32;;;;;;;1.30;1.00;;;20.80;58.20;;;;;;5105683;27;20032;-35
2022/10/25 07:45:58;;;;;;;1.13;1.00;;;20.80;57.60;;;;;;5107310;28;20291;-36
2022/10/25 07:48:24;;;;;;;1.13;1.00;;;20.80;57.70;;;;;;5100275;28;20027;-34
2022/10/25 07:50:50;;;;;;;1.30;1.20;;;20.80;57.80;;;;;;5101208;28;20051;-33
2022/10/25 07:53:16;;;;;;;1.17;1.08;;;20.80;57.90;;;;;;5101791;28;20032;-36
2022/10/25 07:55:42;;;;;;;1.20;0.95;;;20.80;57.90;;;;;;5106464;28;20776;-36
2022/10/25 07:58:09;;;;;;;1.48;1.10;;;20.80;57.90;;;;;;5105821;28;20036;-34
2022/10/25 08:00:36;;;;;;;1.27;1.17;;;20.70;57.80;;;;;;5104912;28;20048;-32
2022/10/25 08:03:02;;;;;;;1.20;1.00;;;20.70;57.90;;;;;;5109677;28;20036;-33
2022/10/25 08:05:28;;;;;;;1.63;1.02;;;20.70;57.80;;;;;;5105896;28;20121;-37
2022/10/25 08:07:54;;;;;;;1.45;1.20;;;20.70;57.90;;;;;;5102412;28;20037;-37
2022/10/25 08:10:20;;;;;;;1.50;1.25;;;20.70;57.90;;;;;;5105403;28;20055;-35
2022/10/25 08:12:48;;;;;;;1.45;1.30;;;20.60;57.80;;;;;;5105276;28;20032;-38
2022/10/25 08:15:14;;;;;;;1.40;1.30;;;20.60;57.80;;;;;;5106805;28;20020;-38
2022/10/25 08:17:40;;;;;;;1.50;1.33;;;20.60;57.80;;;;;;5098872;28;20032;-41
2022/10/25 08:20:06;;;;;;;2.45;1.38;;;20.60;57.80;;;;;;5104422;28;20933;-35
2022/10/25 08:22:32;;;;;;;1.50;1.40;;;20.60;57.90;;;;;;5104443;28;20050;-35
2022/10/25 08:24:59;;;;;;;1.63;1.50;;;20.60;57.80;;;;;;5109204;28;20032;-37
2022/10/25 08:27:26;;;;;;;2.63;1.35;;;20.60;57.80;;;;;;5101720;28;20035;-35
2022/10/25 08:29:52;;;;;;;1.40;1.30;;;20.60;57.80;;;;;;5100115;28;20059;-36
2022/10/25 08:32:18;;;;;;;6.32;1.67;;;20.50;57.90;;;;;;5101119;28;20032;-37
2022/10/25 08:34:44;;;;;;;2.22;1.30;;;20.50;57.90;;;;;;5101186;28;20020;-36
2022/10/25 08:37:11;;;;;;;15.20;2.10;;;20.50;57.90;;;;;;5103515;28;20028;-39
2022/10/25 08:39:37;;;;;;;13.75;2.55;;;20.50;58.10;;;;;;5096467;28;20024;-33
2022/10/25 08:42:03;;;;;;;6.05;1.80;;;20.50;58.50;;;;;;5101764;28;20131;-37
2022/10/25 08:44:46;;;;;;;5.77;1.80;;;20.50;58.40;;;;;;5096306;28;20092;-37
2022/10/25 08:47:20;;;;;;;5.85;1.73;;;20.50;58.30;;;;;;5104532;28;20103;-34
2022/10/25 08:49:58;;;;;;;7.65;2.40;;;20.40;58.20;;;;;;5100002;28;20067;-33
2022/10/25 08:52:54;;;;;;;6.68;2.00;;;20.40;58.20;;;;;;5099894;28;20068;-32
2022/10/25 08:55:31;;;;;;;4.40;2.10;;;20.40;58.10;;;;;;5096130;28;20028;-34
2022/10/25 08:57:57;;;;;;;3.97;2.05;;;20.30;58.00;;;;;;5098766;28;20036;-36
2022/10/25 09:00:23;;;;;;;4.90;2.13;;;20.30;57.90;;;;;;5101017;28;20039;-33
2022/10/25 09:02:59;;;;;;;5.72;2.38;;;20.30;57.90;;;;;;5101422;28;20024;-36
2022/10/25 09:05:39;;;;;;;5.78;2.28;;;20.30;57.90;;;;;;5099685;28;20389;-32
2022/10/25 09:08:28;;;;;;;3.38;2.15;;;20.20;57.80;;;;;;5098798;28;20028;-31
2022/10/25 09:11:29;;;;;;;3.20;1.80;;;20.20;57.80;;;;;;5080323;28;20047;-32
2022/10/25 09:14:03;;;;;;;5.47;2.28;;;20.20;57.70;;;;;;5099935;28;20048;-34
2022/10/25 09:16:35;;;;;;;5.30;2.38;;;20.10;57.70;;;;;;5101120;28;20042;-30
2022/10/25 09:19:01;;;;;;;2.83;2.40;;;20.10;57.70;;;;;;5101367;28;20024;-34
2022/10/25 09:21:37;;;;;;;2.47;2.28;;;20.10;57.60;;;;;;5101971;28;20036;-37
2022/10/25 09:24:28;;;;;;;4.13;2.60;;;20.00;57.60;;;;;;5099922;28;20028;-36
2022/10/25 09:27:13;;;;;;;4.63;2.53;;;20.00;57.60;;;;;;5099859;28;20040;-33
2022/10/25 09:29:52;;;;;;;3.53;2.35;;;20.00;57.60;;;;;;5099215;28;20024;-35
2022/10/25 09:32:22;;;;;;;3.50;2.50;;;20.00;57.60;;;;;;5096189;28;20037;-33
2022/10/25 09:34:48;;;;;;;3.45;2.80;;;19.90;57.60;;;;;;5134271;27;20035;-35
2022/10/25 09:37:26;;;;;;;4.72;2.80;;;19.90;57.60;;;;;;5101328;28;20029;-31
2022/10/25 09:39:58;;;;;;;6.43;3.08;;;19.90;57.50;;;;;;5097288;28;20096;-34
2022/10/25 09:42:46;;;;;;;5.03;3.83;;;19.90;57.60;;;;;;5098213;28;20380;-34
2022/10/25 09:45:57;;;;;;;6.18;4.13;;;19.90;57.80;;;;;;5091425;28;20036;-33
2022/10/25 09:48:38;;;;;;;7.07;5.57;;;19.90;58.40;;;;;;5099336;28;20039;-34
2022/10/25 09:51:25;;;;;;;6.25;5.60;;;19.90;59.00;;;;;;5097598;28;20105;-32
2022/10/25 09:53:51;;;;;;;6.05;4.45;;;19.90;59.70;;;;;;5097784;28;20028;-35
2022/10/25 09:56:17;;;;;;;4.90;4.10;;;20.00;59.60;;;;;;5098393;28;20028;-35
2022/10/25 09:58:45;;;;;;;4.90;4.40;;;20.00;59.10;;;;;;5102407;28;20024;-36
2022/10/25 10:01:13;;;;;;;4.95;4.38;;;20.00;59.00;;;;;;5095514;28;20031;-33
2022/10/25 10:03:40;;;;;;;6.93;4.65;;;20.00;59.20;;;;;;5095643;28;20046;-33
2022/10/25 10:06:25;;;;;;;5.70;4.28;;;20.00;59.70;;;;;;5095411;28;20035;-40
2022/10/25 10:08:53;;;;;;;4.40;4.00;;;20.00;60.10;;;;;;5098601;28;20688;-36
2022/10/25 10:11:20;;;;;;;5.53;4.30;;;20.00;59.60;;;;;;5132744;27;20040;-38
2022/10/25 10:13:51;;;;;;;4.25;3.85;;;20.00;59.40;;;;;;5096650;28;20107;-36
2022/10/25 10:16:25;;;;;;;5.88;3.63;;;20.00;59.70;;;;;;5093725;28;20416;-36
2022/10/25 10:18:51;;;;;;;6.72;4.10;;;20.10;60.60;;;;;;5097474;28;20047;-41
2022/10/25 10:21:21;;;;;;;4.60;3.35;;;20.10;61.10;;;;;;5105225;28;20027;-39
2022/10/25 10:23:47;;;;;;;4.70;3.85;;;20.20;61.20;;;;;;5100505;28;20583;-39
2022/10/25 10:26:26;;;;;;;7.15;3.67;;;20.20;61.50;;;;;;5100670;28;20038;-36
2022/10/25 10:29:13;;;;;;;5.88;3.47;;;20.30;61.90;;;;;;5103025;28;20056;-39
2022/10/25 10:31:41;;;;;;;4.18;3.28;;;20.30;62.00;;;;;;5087930;28;20103;-40
2022/10/25 10:34:40;;;;;;;3.65;3.08;;;20.40;62.10;;;;;;5122799;27;20044;-40
2022/10/25 10:37:22;;;;;;;7.70;3.45;;;20.50;62.30;;;;;;5108514;28;20035;-38
2022/10/25 10:39:56;;;;;;;7.32;3.78;;;20.60;62.60;;;;;;5092316;28;20036;-40
2022/10/25 10:42:31;;;;;;;6.10;3.25;;;20.60;62.60;;;;;;5104103;28;20039;-41
2022/10/25 10:45:10;;;;;;;6.47;3.22;;;20.70;62.50;;;;;;5097300;28;20028;-40
2022/10/25 10:47:47;;;;;;;4.43;3.00;;;20.80;62.40;;;;;;5102982;28;20039;-40
2022/10/25 10:50:24;;;;;;;4.85;3.17;;;20.80;62.20;;;;;;5092779;28;20035;-38
2022/10/25 10:52:53;;;;;;;5.10;2.90;;;20.90;62.30;;;;;;5103581;28;20065;-38
2022/10/25 10:55:27;;;;;;;2.53;2.33;;;21.00;62.30;;;;;;5100293;28;20027;-39
2022/10/25 10:57:53;;;;;;;2.97;2.67;;;21.00;62.20;;;;;;5099327;28;20095;-40
2022/10/25 11:00:21;;;;;;;2.07;1.93;;;21.10;62.00;;;;;;5102965;28;20031;-40
2022/10/25 11:02:47;;;;;;;2.80;2.60;;;21.10;62.10;;;;;;5092591;28;20040;-40
2022/10/25 11:05:36;;;;;;;2.88;2.42;;;21.20;62.10;;;;;;5097253;28;20028;-39
2022/10/25 11:08:11;;;;;;;;;;;21.30;62.00;;;;;;5101184;28;20095;-40
2022/10/25 11:10:38;;;;;;;2.70;2.50;;;21.40;62.30;;;;;;5133793;27;19961;-39
2022/10/25 11:13:13;;;;;;;2.70;2.50;;;21.40;62.00;;;;;;5102614;28;20071;-40
2022/10/25 11:16:03;;;;;;;2.65;2.45;;;21.50;61.90;;;;;;5102853;28;20050;-42
2022/10/25 11:19:00;;;;;;;2.83;2.53;;;21.50;61.20;;;;;;5102397;28;20028;-38
2022/10/25 11:21:47;;;;;;;3.28;2.92;;;21.60;60.80;;;;;;5102466;28;20020;-40
2022/10/25 11:24:49;;;;;;;2.65;2.45;;;21.60;60.30;;;;;;5102723;28;20021;-40
2022/10/25 11:27:46;;;;;;;3.13;2.83;;;21.60;59.90;;;;;;5088800;28;20032;-41
2022/10/25 11:30:16;;;;;;;3.38;3.08;;;21.60;59.70;;;;;;5094617;28;20028;-40
2022/10/25 11:33:08;;;;;;;3.33;3.03;;;21.60;59.50;;;;;;5092351;28;20047;-40
2022/10/25 11:35:58;;;;;;;3.47;2.95;;;21.60;59.30;;;;;;5091235;28;20035;-40
2022/10/25 11:39:04;;;;;;;2.92;2.72;;;21.60;59.20;;;;;;5092567;28;20029;-39
2022/10/25 11:41:46;;;;;;;3.03;2.70;;;21.60;59.30;;;;;;5102292;28;20039;-40
2022/10/25 11:44:25;;;;;;;2.85;2.63;;;21.70;59.40;;;;;;5132023;27;20561;-40
2022/10/25 11:47:13;;;;;;;3.10;2.80;;;21.70;59.20;;;;;;5102698;28;20093;-40
2022/10/25 11:50:17;;;;;;;3.05;2.75;;;21.70;58.90;;;;;;5102108;28;20028;-42
2022/10/25 11:53:13;;;;;;;3.30;3.00;;;21.70;58.80;;;;;;5100216;28;20043;-40
2022/10/25 11:55:42;;;;;;;2.92;2.67;;;21.70;58.70;;;;;;5101331;28;20036;-39
2022/10/25 11:58:39;;;;;;;3.20;2.90;;;21.70;58.60;;;;;;5092687;28;20056;-41
2022/10/25 12:01:37;;;;;;;2.80;2.60;;;21.70;58.80;;;;;;5098441;28;20034;-39
2022/10/25 12:04:52;;;;;;;3.20;2.90;;;21.70;58.80;;;;;;5104298;28;20182;-41
2022/10/25 12:07:26;;;;;;;3.53;3.22;;;21.70;58.60;;;;;;5069384;28;20048;-40
2022/10/25 12:10:02;;;;;;;7.35;3.63;;;21.80;58.40;;;;;;5060347;28;20055;-39
2022/10/25 12:12:51;;;;;;;4.03;2.88;;;21.70;58.30;;;;;;5067609;28;20036;-40
2022/10/25 12:15:37;;;;;;;3.28;2.97;;;21.70;58.20;;;;;;5077164;28;20159;-41
2022/10/25 12:18:04;;;;;;;4.72;3.22;;;21.70;58.20;;;;;;5054112;28;20103;-40
2022/10/25 12:20:30;;;;;;;3.65;3.35;;;21.70;58.10;;;;;;5057227;28;20047;-40
2022/10/25 12:22:57;;;;;;;3.70;3.40;;;21.70;58.00;;;;;;5062150;28;20044;-40
2022/10/25 12:25:27;;;;;;;3.58;3.28;;;21.60;57.90;;;;;;5041338;28;20025;-39
2022/10/25 12:28:11;;;;;;;3.33;3.03;;;21.60;57.90;;;;;;5033188;28;20040;-39
2022/10/25 12:30:37;;;;;;;3.65;3.35;;;21.60;57.80;;;;;;5062913;28;20060;-39
2022/10/25 12:33:18;;;;;;;4.00;3.63;;;21.60;57.70;;;;;;5044318;28;20055;-38
2022/10/25 12:35:49;;;;;;;4.43;3.78;;;21.60;57.70;;;;;;5040329;28;20021;-41
2022/10/25 12:38:31;;;;;;;3.80;3.50;;;21.50;57.60;;;;;;5081776;28;20024;-40
2022/10/25 12:40:59;;;;;;;4.00;3.60;;;21.50;57.50;;;;;;5046612;28;20040;-40
2022/10/25 12:43:47;;;;;;;4.22;3.83;;;21.50;57.50;;;;;;5061982;28;20047;-40
2022/10/25 12:46:28;;;;;;;4.30;3.90;;;21.50;57.50;;;;;;5103759;28;20024;-39
2022/10/25 12:49:22;;;;;;;4.75;3.92;;;21.50;57.40;;;;;;5124879;27;20028;-40
2022/10/25 12:51:56;;;;;;;4.07;3.60;;;21.40;57.40;;;;;;5116459;27;20044;-39
2022/10/25 12:54:38;;;;;;;4.20;3.88;;;21.40;57.40;;;;;;5101554;28;20090;-39
2022/10/25 12:57:16;;;;;;;4.15;3.75;;;21.40;57.40;;;;;;5084953;28;20059;-40
2022/10/25 12:59:58;;;;;;;4.10;3.80;;;21.40;57.40;;;;;;5125686;27;20050;-40
2022/10/25 13:02:45;;;;;;;4.20;3.80;;;21.30;57.30;;;;;;5130442;27;20093;-40
2022/10/25 13:05:36;;;;;;;4.57;4.18;;;21.30;57.30;;;;;;5093741;28;20031;-41
2022/10/25 13:08:03;;;;;;;4.43;3.83;;;21.30;57.30;;;;;;5099133;28;20036;-36
2022/10/25 13:10:32;;;;;;;4.45;4.05;;;21.30;57.30;;;;;;5106345;28;20027;-40
2022/10/25 13:13:17;;;;;;;4.95;4.38;;;21.20;57.30;;;;;;5108186;28;20471;-40